• Join FlightAware (Why Join?)
  • Login
  • US Flag 
04:54AM EST


 

Airport Tracker/Info


-or-


 

Live Flight TrackerFlight Track Log ✈ ASP597 ✈ 09-Jul-2013 ✈ CYKF - KPTK

Flight Track Log - Related Links

Times and Time Zones

All times are in EDT time to prevent confusion due to time zone crossing. See the ASP597 flight status page for this flight to view local times or setup timezone preferences in your user account.

Time Position Orientation Groundspeed Altitude Reporting Facility
EDT Latitude Longitude Course Direction KTS MPH feet Rate Location/Type
12:40PM 43.4500 -80.3667 194° South 160 184 2,000  Level Toronto Center
12:41PM 43.4000 -80.3833 194° South 210 242 4,000 960 Climbing Toronto Center
12:42PM 43.3333 -80.4333 209° Southwest 240 276 4,000 1,140 Level Toronto Center
12:43PM 43.3167 -80.5333 257° West 260 299 6,300 2,700 Climbing Toronto Center
12:44PM 43.2833 -80.6167 241° Southwest 270 311 9,500 2,640 Climbing Toronto Center
12:45PM 43.2500 -80.7167 245° Southwest 280 322 11,600 2,100 Climbing Toronto Center
12:46PM 43.2000 -80.8167 236° Southwest 300 345 13,700 1,860 Climbing Toronto Center
12:47PM 43.1667 -80.9333 249° West 310 357 15,400 1,140 Climbing Toronto Center
12:48PM 43.1333 -81.0500 249° West 330 380 16,000 300 Climbing Toronto Center
12:49PM 43.0833 -81.1833 243° Southwest 370 426 16,000  Level Toronto Center
12:50PM 43.0500 -81.3000 249° West 380 437 16,000  Level Toronto Center
12:51PM 43.0000 -81.4333 243° Southwest 380 437 16,000  Level Toronto Center
12:52PM 42.9667 -81.5667 251° West 380 437 16,000 -120 Level Toronto Center
12:53PM 42.9167 -81.6833 240° Southwest 380 437 15,800 -1,140 Descending Toronto Center
12:54PM 42.8833 -81.8167 251° West 370 426 13,800 -1,860 Descending Toronto Center
12:55PM 42.8167 -81.9333 232° Southwest 350 403 12,100 -900 Descending Toronto Center
12:56PM 42.7833 -82.0667 251° West 340 391 12,000 -360 Descending Toronto Center
12:57PM 42.7667 -82.1833 259° West 340 391 11,400 -600 Descending Toronto Center
12:58PM 42.7667 -82.3167 270° West 330 380 10,900 -540 Descending Toronto Center
12:59PM 42.7500 -82.4333 259° West 330 380 10,400 -540 Descending Toronto Center
01:00PM 42.7500 -82.5667 270° West 330 380 9,900 -900 Descending Toronto Center
01:01PM 42.7333 -82.6500 255° West 280 322 8,700 -1,200 Descending Toronto Center
01:01PM 42.7464 -82.7461 281° West 260 299 7,800 -1,140 Descending Cleveland Center
01:02PM 42.7475 -82.7969 272° West 272 313 7,300 -1,020 Descending Cleveland Center
01:03PM 42.7400 -82.8503 259° West 256 295 6,700 -720 Descending Cleveland Center
01:04PM 42.7358 -82.9633 267° West 257 296 6,100 -480 Descending Cleveland Center
01:05PM 42.7150 -83.0586 253° West 249 287 5,700 -480 Descending Cleveland Center
01:06PM 42.6844 -83.1139 233° Southwest 197 227 5,200 -780 Descending Cleveland Center
01:07PM 42.6725 -83.1869 257° West 179 206 4,300 -960 Descending Cleveland Center
01:08PM 42.6689 -83.2544 266° West 178 205 3,300 -960 Descending Cleveland Center
01:09PM 42.6672 -83.3194 268° West 173 199 2,400 -900 Descending Cleveland Center
01:10PM 42.6678 -83.3844 271° West 142 163 1,500 -840 Descending Cleveland Center
01:12PM 42.6500 -83.4167 246° West  Level FlightAware Approximate
01:19PM 42.6656 -83.4205 246° West  Level Estimated